sensor_id;sensor_type;location;lat;lon;timestamp;temperature;humidity
790;DHT22;378;48.844;9.156;2023-11-21T00:00:35;8.00;99.90
790;DHT22;378;48.844;9.156;2023-11-21T00:03:02;8.00;99.90
790;DHT22;378;48.844;9.156;2023-11-21T00:05:34;8.00;99.90
790;DHT22;378;48.844;9.156;2023-11-21T00:08:02;8.00;99.90
790;DHT22;378;48.844;9.156;2023-11-21T00:10:30;7.90;99.90
790;DHT22;378;48.844;9.156;2023-11-21T00:12:59;8.00;99.90
790;DHT22;378;48.844;9.156;2023-11-21T00:15:27;7.90;99.90
790;DHT22;378;48.844;9.156;2023-11-21T00:17:54;7.90;99.90
790;DHT22;378;48.844;9.156;2023-11-21T00:20:21;7.90;99.90
790;DHT22;378;48.844;9.156;2023-11-21T00:22:50;7.90;99.90
790;DHT22;378;48.844;9.156;2023-11-21T00:25:17;7.80;99.90
790;DHT22;378;48.844;9.156;2023-11-21T00:27:47;7.90;99.90
790;DHT22;378;48.844;9.156;2023-11-21T00:30:16;7.80;99.90
790;DHT22;378;48.844;9.156;2023-11-21T00:32:43;7.80;99.90
790;DHT22;378;48.844;9.156;2023-11-21T00:35:10;7.90;99.90
790;DHT22;378;48.844;9.156;2023-11-21T00:37:37;7.90;99.90
790;DHT22;378;48.844;9.156;2023-11-21T00:40:06;7.90;99.90
790;DHT22;378;48.844;9.156;2023-11-21T00:42:33;8.00;99.90
790;DHT22;378;48.844;9.156;2023-11-21T00:45:00;8.00;99.90
790;DHT22;378;48.844;9.156;2023-11-21T00:47:28;8.00;99.90
790;DHT22;378;48.844;9.156;2023-11-21T00:49:55;8.10;99.90
790;DHT22;378;48.844;9.156;2023-11-21T00:52:22;8.10;99.90
790;DHT22;378;48.844;9.156;2023-11-21T00:54:49;8.00;99.90
790;DHT22;378;48.844;9.156;2023-11-21T00:57:16;8.00;99.90
790;DHT22;378;48.844;9.156;2023-11-21T00:59:42;8.00;99.90
790;DHT22;378;48.844;9.156;2023-11-21T01:02:09;8.00;99.90
790;DHT22;378;48.844;9.156;2023-11-21T01:04:38;7.90;99.90
790;DHT22;378;48.844;9.156;2023-11-21T01:07:04;7.90;99.90
790;DHT22;378;48.844;9.156;2023-11-21T01:09:32;7.90;99.90
790;DHT22;378;48.844;9.156;2023-11-21T01:11:59;7.90;99.90
790;DHT22;378;48.844;9.156;2023-11-21T01:14:26;7.90;99.90
790;DHT22;378;48.844;9.156;2023-11-21T01:16:53;7.90;99.90
790;DHT22;378;48.844;9.156;2023-11-21T01:19:21;8.00;99.90
790;DHT22;378;48.844;9.156;2023-11-21T01:21:49;8.00;99.90
790;DHT22;378;48.844;9.156;2023-11-21T01:24:17;7.90;99.90
790;DHT22;378;48.844;9.156;2023-11-21T01:26:44;7.90;99.90
790;DHT22;378;48.844;9.156;2023-11-21T01:29:12;7.80;99.90
790;DHT22;378;48.844;9.156;2023-11-21T01:31:39;7.80;99.90
790;DHT22;378;48.844;9.156;2023-11-21T01:34:06;7.90;99.90
790;DHT22;378;48.844;9.156;2023-11-21T01:36:33;7.80;99.90
790;DHT22;378;48.844;9.156;2023-11-21T01:39:00;7.90;99.90
790;DHT22;378;48.844;9.156;2023-11-21T01:41:27;7.90;99.90
790;DHT22;378;48.844;9.156;2023-11-21T01:43:54;7.90;99.90
790;DHT22;378;48.844;9.156;2023-11-21T01:46:22;7.90;99.90
790;DHT22;378;48.844;9.156;2023-11-21T01:48:49;7.90;99.90
790;DHT22;378;48.844;9.156;2023-11-21T01:51:16;7.90;99.90
790;DHT22;378;48.844;9.156;2023-11-21T01:53:45;7.90;99.90
790;DHT22;378;48.844;9.156;2023-11-21T01:56:14;8.00;99.90
790;DHT22;378;48.844;9.156;2023-11-21T01:58:42;8.00;99.90
790;DHT22;378;48.844;9.156;2023-11-21T02:01:09;8.00;99.90
790;DHT22;378;48.844;9.156;2023-11-21T02:03:36;8.00;99.90
790;DHT22;378;48.844;9.156;2023-11-21T02:06:03;8.00;99.90
790;DHT22;378;48.844;9.156;2023-11-21T02:08:32;8.00;99.90
790;DHT22;378;48.844;9.156;2023-11-21T02:10:59;7.90;99.90
790;DHT22;378;48.844;9.156;2023-11-21T02:13:29;7.90;99.90
790;DHT22;378;48.844;9.156;2023-11-21T02:15:56;7.90;99.90
790;DHT22;378;48.844;9.156;2023-11-21T02:18:23;7.90;99.90
790;DHT22;378;48.844;9.156;2023-11-21T02:20:50;8.00;99.90
790;DHT22;378;48.844;9.156;2023-11-21T02:23:18;8.00;99.90
790;DHT22;378;48.844;9.156;2023-11-21T02:25:45;8.00;99.90
790;DHT22;378;48.844;9.156;2023-11-21T02:28:12;7.90;99.90
790;DHT22;378;48.844;9.156;2023-11-21T02:30:41;8.00;99.90
790;DHT22;378;48.844;9.156;2023-11-21T02:33:08;8.00;99.90
790;DHT22;378;48.844;9.156;2023-11-21T02:35:34;8.00;99.90
790;DHT22;378;48.844;9.156;2023-11-21T02:38:01;8.00;99.90
790;DHT22;378;48.844;9.156;2023-11-21T02:40:30;8.00;99.90
790;DHT22;378;48.844;9.156;2023-11-21T02:42:56;8.00;99.90
790;DHT22;378;48.844;9.156;2023-11-21T02:45:24;8.00;99.90
790;DHT22;378;48.844;9.156;2023-11-21T02:47:51;8.00;99.90
790;DHT22;378;48.844;9.156;2023-11-21T02:50:22;8.00;99.90
790;DHT22;378;48.844;9.156;2023-11-21T02:52:49;8.00;99.90
790;DHT22;378;48.844;9.156;2023-11-21T02:55:16;8.10;99.90
790;DHT22;378;48.844;9.156;2023-11-21T02:57:44;8.00;99.90
790;DHT22;378;48.844;9.156;2023-11-21T03:00:12;8.10;99.90
790;DHT22;378;48.844;9.156;2023-11-21T03:02:40;8.00;99.90
790;DHT22;378;48.844;9.156;2023-11-21T03:05:08;8.00;99.90
790;DHT22;378;48.844;9.156;2023-11-21T03:07:36;8.00;99.90
790;DHT22;378;48.844;9.156;2023-11-21T03:10:03;8.10;99.90
790;DHT22;378;48.844;9.156;2023-11-21T03:12:31;8.10;99.90
790;DHT22;378;48.844;9.156;2023-11-21T03:14:59;8.10;99.90
790;DHT22;378;48.844;9.156;2023-11-21T03:17:27;8.20;99.90
790;DHT22;378;48.844;9.156;2023-11-21T03:19:54;8.20;99.90
790;DHT22;378;48.844;9.156;2023-11-21T03:22:22;8.10;99.90
790;DHT22;378;48.844;9.156;2023-11-21T03:24:49;8.10;99.90
790;DHT22;378;48.844;9.156;2023-11-21T03:27:15;8.00;99.90
790;DHT22;378;48.844;9.156;2023-11-21T03:29:42;8.00;99.90
790;DHT22;378;48.844;9.156;2023-11-21T03:32:10;8.00;99.90
790;DHT22;378;48.844;9.156;2023-11-21T03:34:53;8.10;99.90
790;DHT22;378;48.844;9.156;2023-11-21T03:37:20;8.10;99.90
790;DHT22;378;48.844;9.156;2023-11-21T03:39:47;8.10;99.90
790;DHT22;378;48.844;9.156;2023-11-21T03:42:14;8.10;99.90
790;DHT22;378;48.844;9.156;2023-11-21T03:44:40;8.10;99.90
790;DHT22;378;48.844;9.156;2023-11-21T03:47:07;8.10;99.90
790;DHT22;378;48.844;9.156;2023-11-21T03:49:35;8.00;99.90
790;DHT22;378;48.844;9.156;2023-11-21T03:52:02;8.10;99.90
790;DHT22;378;48.844;9.156;2023-11-21T03:54:29;8.20;99.90
790;DHT22;378;48.844;9.156;2023-11-21T03:56:56;8.20;99.90
790;DHT22;378;48.844;9.156;2023-11-21T03:59:23;8.20;99.90
790;DHT22;378;48.844;9.156;2023-11-21T04:01:52;8.20;99.90
790;DHT22;378;48.844;9.156;2023-11-21T04:04:21;8.20;99.90
790;DHT22;378;48.844;9.156;2023-11-21T04:06:49;8.20;99.90
790;DHT22;378;48.844;9.156;2023-11-21T04:09:17;8.20;99.90
790;DHT22;378;48.844;9.156;2023-11-21T04:11:44;8.10;99.90
790;DHT22;378;48.844;9.156;2023-11-21T04:14:11;8.10;99.90
790;DHT22;378;48.844;9.156;2023-11-21T04:16:38;8.10;99.90
790;DHT22;378;48.844;9.156;2023-11-21T04:19:05;8.20;99.90
790;DHT22;378;48.844;9.156;2023-11-21T04:21:32;8.10;99.90
790;DHT22;378;48.844;9.156;2023-11-21T04:24:00;8.20;99.90
790;DHT22;378;48.844;9.156;2023-11-21T04:26:27;8.20;99.90
790;DHT22;378;48.844;9.156;2023-11-21T04:28:53;8.10;99.90
790;DHT22;378;48.844;9.156;2023-11-21T04:31:20;8.10;99.90
790;DHT22;378;48.844;9.156;2023-11-21T04:33:47;8.10;99.90
790;DHT22;378;48.844;9.156;2023-11-21T04:36:14;8.10;99.90
790;DHT22;378;48.844;9.156;2023-11-21T04:38:41;8.10;99.90
790;DHT22;378;48.844;9.156;2023-11-21T04:41:09;8.00;99.90
790;DHT22;378;48.844;9.156;2023-11-21T04:43:37;8.00;99.90
790;DHT22;378;48.844;9.156;2023-11-21T04:46:04;7.90;99.90
790;DHT22;378;48.844;9.156;2023-11-21T04:48:32;7.80;99.90
790;DHT22;378;48.844;9.156;2023-11-21T04:50:59;8.00;99.90
790;DHT22;378;48.844;9.156;2023-11-21T04:53:26;8.00;99.90
790;DHT22;378;48.844;9.156;2023-11-21T04:55:52;8.00;99.90
790;DHT22;378;48.844;9.156;2023-11-21T04:58:21;8.10;99.90
790;DHT22;378;48.844;9.156;2023-11-21T05:00:47;8.00;99.90
790;DHT22;378;48.844;9.156;2023-11-21T05:03:15;8.00;99.90
790;DHT22;378;48.844;9.156;2023-11-21T05:05:42;8.10;99.90
790;DHT22;378;48.844;9.156;2023-11-21T05:08:09;8.10;99.90
790;DHT22;378;48.844;9.156;2023-11-21T05:10:36;8.10;99.90
790;DHT22;378;48.844;9.156;2023-11-21T05:13:03;8.10;99.90
790;DHT22;378;48.844;9.156;2023-11-21T05:15:35;8.10;99.90
790;DHT22;378;48.844;9.156;2023-11-21T05:18:01;8.10;99.90
790;DHT22;378;48.844;9.156;2023-11-21T05:20:28;8.00;99.90
790;DHT22;378;48.844;9.156;2023-11-21T05:22:55;8.00;99.90
790;DHT22;378;48.844;9.156;2023-11-21T05:25:22;7.90;99.90
790;DHT22;378;48.844;9.156;2023-11-21T05:27:49;7.90;99.90
790;DHT22;378;48.844;9.156;2023-11-21T05:30:16;7.90;99.90
790;DHT22;378;48.844;9.156;2023-11-21T05:32:44;7.90;99.90
790;DHT22;378;48.844;9.156;2023-11-21T05:35:12;7.90;99.90
790;DHT22;378;48.844;9.156;2023-11-21T05:37:41;7.90;99.90
790;DHT22;378;48.844;9.156;2023-11-21T05:40:08;7.90;99.90
790;DHT22;378;48.844;9.156;2023-11-21T05:42:36;7.90;99.90
790;DHT22;378;48.844;9.156;2023-11-21T05:45:04;7.90;99.90
790;DHT22;378;48.844;9.156;2023-11-21T05:47:36;7.90;99.90
790;DHT22;378;48.844;9.156;2023-11-21T05:50:08;7.90;99.90
790;DHT22;378;48.844;9.156;2023-11-21T05:52:40;7.90;99.90
790;DHT22;378;48.844;9.156;2023-11-21T05:55:08;7.90;99.90
790;DHT22;378;48.844;9.156;2023-11-21T05:57:35;7.90;99.90
790;DHT22;378;48.844;9.156;2023-11-21T06:00:04;7.90;99.90
790;DHT22;378;48.844;9.156;2023-11-21T06:02:37;7.90;99.90
790;DHT22;378;48.844;9.156;2023-11-21T06:05:07;7.80;99.90
790;DHT22;378;48.844;9.156;2023-11-21T06:07:34;7.80;99.90
790;DHT22;378;48.844;9.156;2023-11-21T06:10:02;7.80;99.90
790;DHT22;378;48.844;9.156;2023-11-21T06:12:31;7.70;99.90
790;DHT22;378;48.844;9.156;2023-11-21T06:15:01;7.70;99.90
790;DHT22;378;48.844;9.156;2023-11-21T06:17:29;7.70;99.90
790;DHT22;378;48.844;9.156;2023-11-21T06:19:56;7.70;99.90
790;DHT22;378;48.844;9.156;2023-11-21T06:22:24;7.80;99.90
790;DHT22;378;48.844;9.156;2023-11-21T06:24:51;7.80;99.90
790;DHT22;378;48.844;9.156;2023-11-21T06:27:18;7.80;99.90
790;DHT22;378;48.844;9.156;2023-11-21T06:29:45;7.80;99.90
790;DHT22;378;48.844;9.156;2023-11-21T06:32:12;7.90;99.90
790;DHT22;378;48.844;9.156;2023-11-21T06:34:41;7.80;99.90
790;DHT22;378;48.844;9.156;2023-11-21T06:37:08;7.80;99.90
790;DHT22;378;48.844;9.156;2023-11-21T06:39:37;7.90;99.90
790;DHT22;378;48.844;9.156;2023-11-21T06:42:05;7.90;99.90
790;DHT22;378;48.844;9.156;2023-11-21T06:44:32;7.90;99.90
790;DHT22;378;48.844;9.156;2023-11-21T06:46:59;7.90;99.90
790;DHT22;378;48.844;9.156;2023-11-21T06:49:26;7.90;99.90
790;DHT22;378;48.844;9.156;2023-11-21T06:51:52;7.90;99.90
790;DHT22;378;48.844;9.156;2023-11-21T06:54:20;7.90;99.90
790;DHT22;378;48.844;9.156;2023-11-21T06:56:49;7.90;99.90
790;DHT22;378;48.844;9.156;2023-11-21T06:59:16;7.90;99.90
790;DHT22;378;48.844;9.156;2023-11-21T07:01:46;7.90;99.90
790;DHT22;378;48.844;9.156;2023-11-21T07:04:13;8.00;99.90
790;DHT22;378;48.844;9.156;2023-11-21T07:06:39;8.10;99.90
790;DHT22;378;48.844;9.156;2023-11-21T07:09:06;8.00;99.90
790;DHT22;378;48.844;9.156;2023-11-21T07:11:34;8.00;99.90
790;DHT22;378;48.844;9.156;2023-11-21T07:14:02;8.00;99.90
790;DHT22;378;48.844;9.156;2023-11-21T07:16:39;8.10;99.90
790;DHT22;378;48.844;9.156;2023-11-21T07:19:08;8.10;99.90
790;DHT22;378;48.844;9.156;2023-11-21T07:21:39;8.00;99.90
790;DHT22;378;48.844;9.156;2023-11-21T07:24:11;8.00;99.90
790;DHT22;378;48.844;9.156;2023-11-21T07:26:38;7.90;99.90
790;DHT22;378;48.844;9.156;2023-11-21T07:29:06;7.90;99.90
790;DHT22;378;48.844;9.156;2023-11-21T07:31:34;8.00;99.90
790;DHT22;378;48.844;9.156;2023-11-21T07:34:01;8.10;99.90
790;DHT22;378;48.844;9.156;2023-11-21T07:36:28;8.10;99.90
790;DHT22;378;48.844;9.156;2023-11-21T07:38:55;8.10;99.90
790;DHT22;378;48.844;9.156;2023-11-21T07:41:22;8.10;99.90
790;DHT22;378;48.844;9.156;2023-11-21T07:43:48;8.10;99.90
790;DHT22;378;48.844;9.156;2023-11-21T07:46:17;8.20;99.90
790;DHT22;378;48.844;9.156;2023-11-21T07:48:44;8.20;99.90
790;DHT22;378;48.844;9.156;2023-11-21T07:51:12;8.30;99.90
790;DHT22;378;48.844;9.156;2023-11-21T07:53:39;8.30;99.90
790;DHT22;378;48.844;9.156;2023-11-21T07:56:08;8.30;99.90
790;DHT22;378;48.844;9.156;2023-11-21T07:58:35;8.30;99.90
790;DHT22;378;48.844;9.156;2023-11-21T08:01:02;8.30;99.90
790;DHT22;378;48.844;9.156;2023-11-21T08:03:31;8.30;99.90
790;DHT22;378;48.844;9.156;2023-11-21T08:05:58;8.40;99.90
790;DHT22;378;48.844;9.156;2023-11-21T08:08:25;8.40;99.90
790;DHT22;378;48.844;9.156;2023-11-21T08:10:53;8.30;99.90
790;DHT22;378;48.844;9.156;2023-11-21T08:13:23;8.30;99.90
790;DHT22;378;48.844;9.156;2023-11-21T08:15:50;8.30;99.90
790;DHT22;378;48.844;9.156;2023-11-21T08:18:17;8.30;99.90
790;DHT22;378;48.844;9.156;2023-11-21T08:20:45;8.40;99.90
790;DHT22;378;48.844;9.156;2023-11-21T08:23:14;8.40;99.90
790;DHT22;378;48.844;9.156;2023-11-21T08:25:42;8.50;99.90
790;DHT22;378;48.844;9.156;2023-11-21T08:28:09;8.60;99.90
790;DHT22;378;48.844;9.156;2023-11-21T08:30:36;8.60;99.90
790;DHT22;378;48.844;9.156;2023-11-21T08:33:03;8.60;99.90
790;DHT22;378;48.844;9.156;2023-11-21T08:35:31;8.60;99.90
790;DHT22;378;48.844;9.156;2023-11-21T08:37:59;8.60;99.90
790;DHT22;378;48.844;9.156;2023-11-21T08:40:26;8.70;99.90
790;DHT22;378;48.844;9.156;2023-11-21T08:42:53;8.70;99.90
790;DHT22;378;48.844;9.156;2023-11-21T08:45:20;8.70;99.90
790;DHT22;378;48.844;9.156;2023-11-21T08:47:49;8.80;99.90
790;DHT22;378;48.844;9.156;2023-11-21T08:50:16;8.80;99.90
790;DHT22;378;48.844;9.156;2023-11-21T08:52:45;8.80;99.90
790;DHT22;378;48.844;9.156;2023-11-21T08:55:14;8.70;99.90
790;DHT22;378;48.844;9.156;2023-11-21T08:57:43;8.60;99.90
790;DHT22;378;48.844;9.156;2023-11-21T09:00:11;8.70;99.90
790;DHT22;378;48.844;9.156;2023-11-21T09:02:39;8.80;99.90
790;DHT22;378;48.844;9.156;2023-11-21T09:05:08;8.80;99.90
790;DHT22;378;48.844;9.156;2023-11-21T09:07:35;8.80;99.90
790;DHT22;378;48.844;9.156;2023-11-21T09:10:03;8.80;99.90
790;DHT22;378;48.844;9.156;2023-11-21T09:12:32;8.80;99.90
790;DHT22;378;48.844;9.156;2023-11-21T09:15:00;8.90;99.90
790;DHT22;378;48.844;9.156;2023-11-21T09:17:27;8.90;99.90
790;DHT22;378;48.844;9.156;2023-11-21T09:19:54;8.90;99.90
790;DHT22;378;48.844;9.156;2023-11-21T09:22:23;9.00;99.90
790;DHT22;378;48.844;9.156;2023-11-21T09:24:50;9.00;99.90
790;DHT22;378;48.844;9.156;2023-11-21T09:27:18;9.00;99.90
790;DHT22;378;48.844;9.156;2023-11-21T09:29:46;9.00;99.90
790;DHT22;378;48.844;9.156;2023-11-21T09:32:14;8.90;99.90
790;DHT22;378;48.844;9.156;2023-11-21T09:34:44;9.00;99.90
790;DHT22;378;48.844;9.156;2023-11-21T09:37:11;8.90;99.90
790;DHT22;378;48.844;9.156;2023-11-21T09:39:38;8.90;99.90
790;DHT22;378;48.844;9.156;2023-11-21T09:42:11;8.90;99.90
790;DHT22;378;48.844;9.156;2023-11-21T09:44:48;8.90;99.90
790;DHT22;378;48.844;9.156;2023-11-21T09:47:18;8.90;99.90
790;DHT22;378;48.844;9.156;2023-11-21T09:49:48;8.90;99.90
790;DHT22;378;48.844;9.156;2023-11-21T09:52:22;8.90;99.90
790;DHT22;378;48.844;9.156;2023-11-21T09:54:56;8.90;99.90
790;DHT22;378;48.844;9.156;2023-11-21T09:57:38;8.90;99.90
790;DHT22;378;48.844;9.156;2023-11-21T10:00:09;8.90;99.90
790;DHT22;378;48.844;9.156;2023-11-21T10:02:38;8.80;99.90
790;DHT22;378;48.844;9.156;2023-11-21T10:05:06;8.80;99.90
790;DHT22;378;48.844;9.156;2023-11-21T10:07:35;8.80;99.90
790;DHT22;378;48.844;9.156;2023-11-21T10:10:02;8.80;99.90
790;DHT22;378;48.844;9.156;2023-11-21T10:12:30;8.70;99.90
790;DHT22;378;48.844;9.156;2023-11-21T10:14:59;8.80;99.90
790;DHT22;378;48.844;9.156;2023-11-21T10:17:29;8.80;99.90
790;DHT22;378;48.844;9.156;2023-11-21T10:20:04;8.70;99.90
790;DHT22;378;48.844;9.156;2023-11-21T10:22:37;8.70;99.90
790;DHT22;378;48.844;9.156;2023-11-21T10:25:07;8.60;99.90
790;DHT22;378;48.844;9.156;2023-11-21T10:27:34;8.60;99.90
790;DHT22;378;48.844;9.156;2023-11-21T10:30:00;8.60;99.90
790;DHT22;378;48.844;9.156;2023-11-21T10:32:29;8.60;99.90
790;DHT22;378;48.844;9.156;2023-11-21T10:34:58;8.70;99.90
790;DHT22;378;48.844;9.156;2023-11-21T10:37:28;8.80;99.90
790;DHT22;378;48.844;9.156;2023-11-21T10:39:57;8.70;99.90
790;DHT22;378;48.844;9.156;2023-11-21T10:42:25;8.70;99.90
790;DHT22;378;48.844;9.156;2023-11-21T10:44:52;8.70;99.90
790;DHT22;378;48.844;9.156;2023-11-21T10:47:19;8.80;99.90
790;DHT22;378;48.844;9.156;2023-11-21T10:49:49;8.80;99.90
790;DHT22;378;48.844;9.156;2023-11-21T10:52:19;8.90;99.90
790;DHT22;378;48.844;9.156;2023-11-21T10:54:46;8.90;99.90
790;DHT22;378;48.844;9.156;2023-11-21T10:57:17;9.00;99.90
790;DHT22;378;48.844;9.156;2023-11-21T10:59:46;9.00;99.90
790;DHT22;378;48.844;9.156;2023-11-21T11:02:21;8.90;99.90
790;DHT22;378;48.844;9.156;2023-11-21T11:04:52;9.00;99.90
790;DHT22;378;48.844;9.156;2023-11-21T11:07:21;8.90;99.90
790;DHT22;378;48.844;9.156;2023-11-21T11:09:52;8.90;99.90
790;DHT22;378;48.844;9.156;2023-11-21T11:12:19;8.80;99.90
790;DHT22;378;48.844;9.156;2023-11-21T11:14:47;8.80;99.90
790;DHT22;378;48.844;9.156;2023-11-21T11:17:15;8.90;99.90
790;DHT22;378;48.844;9.156;2023-11-21T11:19:42;9.00;99.90
790;DHT22;378;48.844;9.156;2023-11-21T11:22:19;9.00;99.90
790;DHT22;378;48.844;9.156;2023-11-21T11:25:07;9.10;99.90
790;DHT22;378;48.844;9.156;2023-11-21T11:27:47;9.10;99.90
790;DHT22;378;48.844;9.156;2023-11-21T11:30:25;9.10;99.90
790;DHT22;378;48.844;9.156;2023-11-21T11:33:02;9.10;99.90
790;DHT22;378;48.844;9.156;2023-11-21T11:35:36;9.20;99.90
790;DHT22;378;48.844;9.156;2023-11-21T11:38:06;9.30;99.90
790;DHT22;378;48.844;9.156;2023-11-21T11:40:40;9.30;99.90
790;DHT22;378;48.844;9.156;2023-11-21T11:43:07;9.20;99.90
790;DHT22;378;48.844;9.156;2023-11-21T11:45:35;9.30;99.90
790;DHT22;378;48.844;9.156;2023-11-21T11:48:06;9.30;99.90
790;DHT22;378;48.844;9.156;2023-11-21T11:50:34;9.30;99.90
790;DHT22;378;48.844;9.156;2023-11-21T11:53:14;9.30;99.90
790;DHT22;378;48.844;9.156;2023-11-21T11:55:41;9.30;99.90
790;DHT22;378;48.844;9.156;2023-11-21T11:58:08;9.30;99.90
790;DHT22;378;48.844;9.156;2023-11-21T12:00:35;9.30;99.90
790;DHT22;378;48.844;9.156;2023-11-21T12:03:07;9.30;99.90
790;DHT22;378;48.844;9.156;2023-11-21T12:05:34;9.30;99.90
790;DHT22;378;48.844;9.156;2023-11-21T12:08:05;9.30;99.90
790;DHT22;378;48.844;9.156;2023-11-21T12:10:35;9.30;99.90
790;DHT22;378;48.844;9.156;2023-11-21T12:13:07;9.40;99.90
790;DHT22;378;48.844;9.156;2023-11-21T12:15:48;9.40;99.90
790;DHT22;378;48.844;9.156;2023-11-21T12:18:16;9.40;99.90
790;DHT22;378;48.844;9.156;2023-11-21T12:20:42;9.40;99.90
790;DHT22;378;48.844;9.156;2023-11-21T12:23:12;9.40;99.90
790;DHT22;378;48.844;9.156;2023-11-21T12:25:42;9.40;99.90
790;DHT22;378;48.844;9.156;2023-11-21T12:28:09;9.40;99.90
790;DHT22;378;48.844;9.156;2023-11-21T12:30:43;9.40;99.90
790;DHT22;378;48.844;9.156;2023-11-21T12:33:10;9.40;99.90
790;DHT22;378;48.844;9.156;2023-11-21T12:35:43;9.50;99.90
790;DHT22;378;48.844;9.156;2023-11-21T12:38:13;9.60;99.90
790;DHT22;378;48.844;9.156;2023-11-21T12:40:44;9.70;99.90
790;DHT22;378;48.844;9.156;2023-11-21T12:43:11;9.70;99.90
790;DHT22;378;48.844;9.156;2023-11-21T12:45:38;9.80;99.90
790;DHT22;378;48.844;9.156;2023-11-21T12:48:08;10.00;99.90
790;DHT22;378;48.844;9.156;2023-11-21T12:50:40;10.00;99.90
790;DHT22;378;48.844;9.156;2023-11-21T12:53:09;10.00;99.90
790;DHT22;378;48.844;9.156;2023-11-21T12:55:38;10.00;99.90
790;DHT22;378;48.844;9.156;2023-11-21T12:58:09;10.00;99.90
790;DHT22;378;48.844;9.156;2023-11-21T13:00:39;9.90;99.90
790;DHT22;378;48.844;9.156;2023-11-21T13:03:09;9.80;99.90
790;DHT22;378;48.844;9.156;2023-11-21T13:05:39;9.60;99.90
790;DHT22;378;48.844;9.156;2023-11-21T13:08:08;9.40;99.90
790;DHT22;378;48.844;9.156;2023-11-21T13:10:39;9.30;99.90
790;DHT22;378;48.844;9.156;2023-11-21T13:13:11;9.20;99.90
790;DHT22;378;48.844;9.156;2023-11-21T13:15:47;9.20;99.90
790;DHT22;378;48.844;9.156;2023-11-21T13:18:15;9.10;99.90
790;DHT22;378;48.844;9.156;2023-11-21T13:20:43;9.10;99.90
790;DHT22;378;48.844;9.156;2023-11-21T13:23:12;9.10;99.90
790;DHT22;378;48.844;9.156;2023-11-21T13:25:41;9.00;99.90
790;DHT22;378;48.844;9.156;2023-11-21T13:28:12;9.00;99.90
790;DHT22;378;48.844;9.156;2023-11-21T13:30:41;8.90;99.90
790;DHT22;378;48.844;9.156;2023-11-21T13:33:10;8.90;99.90
790;DHT22;378;48.844;9.156;2023-11-21T13:35:44;8.90;99.90
790;DHT22;378;48.844;9.156;2023-11-21T13:38:15;8.90;99.90
790;DHT22;378;48.844;9.156;2023-11-21T13:40:47;8.90;99.90
790;DHT22;378;48.844;9.156;2023-11-21T13:43:17;8.90;99.90
790;DHT22;378;48.844;9.156;2023-11-21T13:45:47;8.90;99.90
790;DHT22;378;48.844;9.156;2023-11-21T13:48:15;8.90;99.90
790;DHT22;378;48.844;9.156;2023-11-21T13:50:50;9.00;99.90
790;DHT22;378;48.844;9.156;2023-11-21T13:53:25;9.00;99.90
790;DHT22;378;48.844;9.156;2023-11-21T13:55:53;9.10;99.90
790;DHT22;378;48.844;9.156;2023-11-21T13:58:24;9.00;99.90
790;DHT22;378;48.844;9.156;2023-11-21T14:01:05;9.00;99.90
790;DHT22;378;48.844;9.156;2023-11-21T14:03:38;9.00;99.90
790;DHT22;378;48.844;9.156;2023-11-21T14:06:17;9.00;99.90
790;DHT22;378;48.844;9.156;2023-11-21T14:08:49;8.90;99.90
790;DHT22;378;48.844;9.156;2023-11-21T14:11:16;8.90;99.90
790;DHT22;378;48.844;9.156;2023-11-21T14:13:46;8.90;99.90
790;DHT22;378;48.844;9.156;2023-11-21T14:16:14;8.90;99.90
790;DHT22;378;48.844;9.156;2023-11-21T14:18:42;8.90;99.90
790;DHT22;378;48.844;9.156;2023-11-21T14:21:18;8.90;99.90
790;DHT22;378;48.844;9.156;2023-11-21T14:23:45;8.90;99.90
790;DHT22;378;48.844;9.156;2023-11-21T14:26:12;8.90;99.90
790;DHT22;378;48.844;9.156;2023-11-21T14:28:39;8.90;99.90
790;DHT22;378;48.844;9.156;2023-11-21T14:31:11;8.80;99.90
790;DHT22;378;48.844;9.156;2023-11-21T14:33:41;8.90;99.90
790;DHT22;378;48.844;9.156;2023-11-21T14:36:08;8.90;99.90
790;DHT22;378;48.844;9.156;2023-11-21T14:38:35;8.90;99.90
790;DHT22;378;48.844;9.156;2023-11-21T14:41:02;8.80;99.90
790;DHT22;378;48.844;9.156;2023-11-21T14:43:32;8.80;99.90
790;DHT22;378;48.844;9.156;2023-11-21T14:46:00;8.80;99.90
790;DHT22;378;48.844;9.156;2023-11-21T14:48:30;8.80;99.90
790;DHT22;378;48.844;9.156;2023-11-21T14:51:08;8.90;99.90
790;DHT22;378;48.844;9.156;2023-11-21T14:53:53;8.90;99.90
790;DHT22;378;48.844;9.156;2023-11-21T14:56:19;8.90;99.90
790;DHT22;378;48.844;9.156;2023-11-21T14:58:53;8.80;99.90
790;DHT22;378;48.844;9.156;2023-11-21T15:01:21;8.90;99.90
790;DHT22;378;48.844;9.156;2023-11-21T15:04:02;8.80;99.90
790;DHT22;378;48.844;9.156;2023-11-21T15:06:31;8.80;99.90
790;DHT22;378;48.844;9.156;2023-11-21T15:08:58;8.80;99.90
790;DHT22;378;48.844;9.156;2023-11-21T15:11:42;8.80;99.90
790;DHT22;378;48.844;9.156;2023-11-21T15:14:09;8.80;99.90
790;DHT22;378;48.844;9.156;2023-11-21T15:16:38;8.80;99.90
790;DHT22;378;48.844;9.156;2023-11-21T15:19:09;8.80;99.90
790;DHT22;378;48.844;9.156;2023-11-21T15:21:38;8.70;99.90
790;DHT22;378;48.844;9.156;2023-11-21T15:24:05;8.70;99.90
790;DHT22;378;48.844;9.156;2023-11-21T15:26:33;8.70;99.90
790;DHT22;378;48.844;9.156;2023-11-21T15:28:59;8.70;99.90
790;DHT22;378;48.844;9.156;2023-11-21T15:31:26;8.70;99.90
790;DHT22;378;48.844;9.156;2023-11-21T15:33:53;8.80;99.90
790;DHT22;378;48.844;9.156;2023-11-21T15:36:25;8.80;99.90
790;DHT22;378;48.844;9.156;2023-11-21T15:38:53;8.80;99.90
790;DHT22;378;48.844;9.156;2023-11-21T15:41:20;8.70;99.90
790;DHT22;378;48.844;9.156;2023-11-21T15:43:47;8.70;99.90
790;DHT22;378;48.844;9.156;2023-11-21T15:46:15;8.70;99.90
790;DHT22;378;48.844;9.156;2023-11-21T15:48:42;8.70;99.90
790;DHT22;378;48.844;9.156;2023-11-21T15:51:15;8.70;99.90
790;DHT22;378;48.844;9.156;2023-11-21T15:53:44;8.60;99.90
790;DHT22;378;48.844;9.156;2023-11-21T15:56:11;8.60;99.90
790;DHT22;378;48.844;9.156;2023-11-21T15:58:39;8.60;99.90
790;DHT22;378;48.844;9.156;2023-11-21T16:01:08;8.60;99.90
790;DHT22;378;48.844;9.156;2023-11-21T16:03:35;8.60;99.90
790;DHT22;378;48.844;9.156;2023-11-21T16:06:02;8.60;99.90
790;DHT22;378;48.844;9.156;2023-11-21T16:08:30;8.60;99.90
790;DHT22;378;48.844;9.156;2023-11-21T16:10:58;8.60;99.90
790;DHT22;378;48.844;9.156;2023-11-21T16:13:26;8.60;99.90
790;DHT22;378;48.844;9.156;2023-11-21T16:15:53;8.60;99.90
790;DHT22;378;48.844;9.156;2023-11-21T16:18:20;8.60;99.90
790;DHT22;378;48.844;9.156;2023-11-21T16:20:49;8.50;99.90
790;DHT22;378;48.844;9.156;2023-11-21T16:23:16;8.50;99.90
790;DHT22;378;48.844;9.156;2023-11-21T16:25:43;8.50;99.90
790;DHT22;378;48.844;9.156;2023-11-21T16:28:12;8.40;99.90
790;DHT22;378;48.844;9.156;2023-11-21T16:30:40;8.40;99.90
790;DHT22;378;48.844;9.156;2023-11-21T16:33:07;8.40;99.90
790;DHT22;378;48.844;9.156;2023-11-21T16:35:34;8.30;99.90
790;DHT22;378;48.844;9.156;2023-11-21T16:38:05;8.30;99.90
790;DHT22;378;48.844;9.156;2023-11-21T16:40:31;8.40;99.90
790;DHT22;378;48.844;9.156;2023-11-21T16:42:58;8.40;99.90
790;DHT22;378;48.844;9.156;2023-11-21T16:45:27;8.40;99.90
790;DHT22;378;48.844;9.156;2023-11-21T16:47:53;8.40;99.90
790;DHT22;378;48.844;9.156;2023-11-21T16:50:20;8.40;99.90
790;DHT22;378;48.844;9.156;2023-11-21T16:52:48;8.40;99.90
790;DHT22;378;48.844;9.156;2023-11-21T16:55:15;8.50;99.90
790;DHT22;378;48.844;9.156;2023-11-21T16:57:42;8.40;99.90
790;DHT22;378;48.844;9.156;2023-11-21T17:00:09;8.30;99.90